Time;durP1;ratioP1;P1;durP2;ratioP2;P2;SDS_P1;SDS_P2;PMS_P1;PMS_P2;Temp;Humidity;BMP_temperature;BMP_pressure;BME280_temperature;BME280_humidity;BME280_pressure;Samples;Min_cycle;Max_cycle;Signal;HPM_P1;HPM_P2
2023/10/15 00:00:45;;;;;;;13.80;1.40;;;;;;;9.18;80.43;100010.64;110387;1275;22124;-75
2023/10/15 00:03:36;;;;;;;9.70;0.90;;;;;;;9.16;80.39;100012.66;110372;1275;22278;-75
2023/10/15 00:06:07;;;;;;;11.10;1.00;;;;;;;9.14;80.44;100013.48;110396;1273;23498;-75
2023/10/15 00:08:37;;;;;;;10.20;1.10;;;;;;;9.12;80.56;100011.71;110419;1275;22245;-75
2023/10/15 00:11:17;;;;;;;9.30;1.00;;;;;;;9.11;80.66;100010.01;110368;1272;23064;-75
2023/10/15 00:13:48;;;;;;;11.60;0.90;;;;;;;9.09;80.78;100009.38;110393;1254;22301;-75
2023/10/15 00:16:23;;;;;;;7.90;0.90;;;;;;;9.08;80.74;100010.23;110372;1274;22209;-75
2023/10/15 00:18:54;;;;;;;7.70;1.50;;;;;;;9.07;80.78;100013.48;110358;1274;22280;-76
2023/10/15 00:21:26;;;;;;;7.90;0.90;;;;;;;9.06;80.69;100013.02;110339;1267;22405;-75
2023/10/15 00:23:57;;;;;;;7.90;0.90;;;;;;;9.07;80.83;100011.65;110390;1268;22290;-74
2023/10/15 00:26:27;;;;;;;11.70;1.00;;;;;;;9.08;80.72;100009.30;110348;1274;23271;-75
2023/10/15 00:28:58;;;;;;;10.00;0.80;;;;;;;9.09;80.77;100011.75;110372;1275;22357;-74
2023/10/15 00:31:29;;;;;;;8.60;0.90;;;;;;;9.11;80.82;100012.36;110366;1275;22205;-75
2023/10/15 00:33:59;;;;;;;10.00;1.10;;;;;;;9.14;80.83;100009.53;110406;1267;23218;-75
2023/10/15 00:36:30;;;;;;;8.80;1.70;;;;;;;9.15;80.83;100007.63;110395;1275;22952;-75
2023/10/15 00:39:09;;;;;;;13.00;1.00;;;;;;;9.16;80.74;100010.60;110399;1272;22365;-75
2023/10/15 00:41:45;;;;;;;7.80;1.10;;;;;;;9.18;80.63;100016.65;110437;1274;22348;-75
2023/10/15 00:44:16;;;;;;;9.80;0.90;;;;;;;9.18;80.68;100021.16;110416;1275;23086;-75
2023/10/15 00:46:54;;;;;;;8.80;0.80;;;;;;;9.18;80.54;100022.84;110373;1275;23062;-75
2023/10/15 00:49:26;;;;;;;7.80;0.80;;;;;;;9.18;80.54;100017.30;110356;1274;23172;-75
2023/10/15 00:52:00;;;;;;;9.30;1.00;;;;;;;9.17;80.48;100019.38;110329;1274;22367;-75
2023/10/15 00:54:33;;;;;;;8.70;1.70;;;;;;;9.15;80.43;100024.25;110423;1271;22846;-75
2023/10/15 00:57:25;;;;;;;8.20;0.90;;;;;;;9.15;80.40;100021.09;110407;1272;22414;-75
2023/10/15 00:59:58;;;;;;;8.50;0.80;;;;;;;9.14;80.44;100018.29;110307;1274;22434;-75
2023/10/15 01:02:31;;;;;;;10.90;0.70;;;;;;;9.15;80.50;100018.86;110345;1275;22204;-75
2023/10/15 01:05:04;;;;;;;5.10;0.70;;;;;;;9.15;80.42;100016.63;110398;1261;22443;-75
2023/10/15 01:07:45;;;;;;;8.90;0.80;;;;;;;9.16;80.62;100012.58;110395;1273;23155;-75
2023/10/15 01:10:31;;;;;;;10.10;1.00;;;;;;;9.18;80.52;100016.70;110416;1275;22209;-75
2023/10/15 01:13:10;;;;;;;9.10;0.90;;;;;;;9.18;80.41;100019.24;110381;1273;22404;-75
2023/10/15 01:15:43;;;;;;;6.30;0.70;;;;;;;9.19;80.31;100019.11;110440;1272;22205;-75
2023/10/15 01:18:14;;;;;;;8.50;0.80;;;;;;;9.20;80.29;100019.79;110439;1270;22227;-75
2023/10/15 01:20:44;;;;;;;8.40;0.80;;;;;;;9.21;80.30;100024.27;110494;1275;22376;-75
2023/10/15 01:23:28;;;;;;;4.40;0.80;;;;;;;9.21;80.24;100021.67;110418;1267;22276;-75
2023/10/15 01:26:00;;;;;;;7.60;0.70;;;;;;;9.19;80.01;100016.17;110389;1274;22354;-75
2023/10/15 01:28:36;;;;;;;6.20;0.60;;;;;;;9.17;79.99;100014.55;110381;1275;22357;-75
2023/10/15 01:31:07;;;;;;;10.50;0.80;;;;;;;9.14;79.87;100020.88;110367;1274;22148;-74
2023/10/15 01:33:46;;;;;;;2.60;0.50;;;;;;;9.14;79.78;100021.71;110365;1274;22399;-75
2023/10/15 01:36:19;;;;;;;6.10;0.60;;;;;;;9.11;79.64;100016.02;110205;1274;22520;-74
2023/10/15 01:38:54;;;;;;;9.40;0.60;;;;;;;9.10;79.51;100021.25;110383;1275;22196;-75
2023/10/15 01:41:26;;;;;;;4.60;0.70;;;;;;;9.08;79.44;100024.14;110331;1270;22348;-75
2023/10/15 01:44:00;;;;;;;5.40;0.40;;;;;;;9.07;79.53;100023.96;110382;1267;22288;-75
2023/10/15 01:46:45;;;;;;;6.10;0.60;;;;;;;9.06;79.39;100025.36;110406;1275;22309;-75
2023/10/15 01:49:31;;;;;;;7.60;0.60;;;;;;;9.05;79.41;100026.05;110354;1273;23264;-74
2023/10/15 01:52:09;;;;;;;3.60;0.40;;;;;;;9.04;79.29;100030.23;110400;1270;22466;-75
2023/10/15 01:54:41;;;;;;;7.30;0.70;;;;;;;9.03;79.22;100029.50;110358;1272;22910;-75
2023/10/15 01:57:15;;;;;;;5.80;0.50;;;;;;;9.01;79.13;100034.91;110374;1274;22856;-75
2023/10/15 01:59:46;;;;;;;5.50;0.50;;;;;;;8.99;79.03;100032.46;110320;1275;22402;-75
2023/10/15 02:02:23;;;;;;;4.50;0.60;;;;;;;8.97;78.88;100038.03;110388;1274;22411;-74
2023/10/15 02:04:57;;;;;;;5.40;0.40;;;;;;;8.95;78.79;100037.52;110375;1270;22303;-74
2023/10/15 02:07:30;;;;;;;3.40;0.40;;;;;;;8.92;78.79;100036.36;110406;1270;22401;-74
2023/10/15 02:10:05;;;;;;;4.60;0.80;;;;;;;8.90;79.09;100034.02;110343;1274;22376;-74
2023/10/15 02:12:36;;;;;;;6.70;0.60;;;;;;;8.88;78.96;100033.55;110384;1275;22729;-74
2023/10/15 02:15:14;;;;;;;4.70;0.60;;;;;;;8.85;78.78;100032.91;110361;1275;22155;-74
2023/10/15 02:17:45;;;;;;;5.50;0.60;;;;;;;8.83;78.96;100035.98;110357;1272;22287;-74
2023/10/15 02:20:26;;;;;;;5.40;0.60;;;;;;;8.80;78.89;100036.03;110376;1274;22385;-74
2023/10/15 02:22:57;;;;;;;7.00;0.50;;;;;;;8.78;78.77;100036.60;110340;1274;22299;-74
2023/10/15 02:25:34;;;;;;;8.20;0.90;;;;;;;8.76;79.03;100037.61;110391;1274;23471;-75
2023/10/15 02:28:08;;;;;;;5.20;0.70;;;;;;;8.75;78.84;100038.42;110344;1274;22250;-74
2023/10/15 02:30:46;;;;;;;4.80;0.30;;;;;;;8.74;78.95;100037.35;110393;1275;22227;-74
2023/10/15 02:33:17;;;;;;;5.50;0.60;;;;;;;8.72;79.14;100039.99;110388;1267;22199;-74
2023/10/15 02:35:48;;;;;;;5.40;0.50;;;;;;;8.69;78.92;100040.27;110363;1272;22251;-74
2023/10/15 02:38:19;;;;;;;6.00;0.50;;;;;;;8.67;78.93;100040.02;110352;1275;23163;-74
2023/10/15 02:41:03;;;;;;;4.30;0.80;;;;;;;8.64;78.97;100044.77;110363;1267;22351;-74
2023/10/15 02:43:36;;;;;;;4.60;0.50;;;;;;;8.61;78.92;100047.42;110385;1272;22167;-74
2023/10/15 02:46:19;;;;;;;8.40;0.60;;;;;;;8.59;79.01;100050.97;110374;1266;22375;-74
2023/10/15 02:48:53;;;;;;;6.90;0.60;;;;;;;8.57;79.04;100056.17;110377;1274;22536;-74
2023/10/15 02:51:24;;;;;;;7.00;0.50;;;;;;;8.54;79.05;100056.67;110363;1275;22186;-74
2023/10/15 02:54:03;;;;;;;7.00;0.70;;;;;;;8.52;79.13;100059.04;110373;1275;23044;-74
2023/10/15 02:56:34;;;;;;;5.20;0.50;;;;;;;8.50;78.99;100055.31;110413;1267;22430;-74
2023/10/15 02:59:05;;;;;;;6.30;0.60;;;;;;;8.47;78.94;100052.59;110378;1269;22163;-74
2023/10/15 03:01:35;;;;;;;5.70;0.60;;;;;;;8.44;79.02;100056.92;110398;1275;22671;-74
2023/10/15 03:04:09;;;;;;;8.40;0.80;;;;;;;8.41;78.82;100061.98;110384;1270;22334;-74
2023/10/15 03:06:41;;;;;;;6.10;0.40;;;;;;;8.39;78.93;100064.64;110419;1266;22402;-74
2023/10/15 03:09:12;;;;;;;8.50;0.60;;;;;;;8.37;78.85;100066.97;110347;1274;22403;-74
2023/10/15 03:11:50;;;;;;;4.60;0.40;;;;;;;8.35;78.89;100064.29;110395;1274;22204;-74
2023/10/15 03:14:21;;;;;;;6.20;0.60;;;;;;;8.33;79.04;100067.58;110428;1272;22207;-74
2023/10/15 03:16:56;;;;;;;7.80;0.40;;;;;;;8.30;78.81;100065.53;110403;1272;22452;-74
2023/10/15 03:19:27;;;;;;;8.10;0.50;;;;;;;8.27;79.02;100066.23;110372;1274;22233;-74
2023/10/15 03:22:00;;;;;;;6.40;0.60;;;;;;;8.25;78.90;100057.98;110361;1274;22377;-74
2023/10/15 03:24:33;;;;;;;5.10;0.30;;;;;;;8.23;78.77;100062.98;110402;1274;22328;-74
2023/10/15 03:27:05;;;;;;;7.60;0.50;;;;;;;8.20;78.82;100064.94;110429;1274;22311;-74
2023/10/15 03:29:36;;;;;;;5.00;0.50;;;;;;;8.17;78.90;100068.07;110408;1274;22276;-74
2023/10/15 03:32:12;;;;;;;7.80;1.00;;;;;;;8.15;78.98;100064.92;110401;1274;22586;-74
2023/10/15 03:34:47;;;;;;;7.00;1.10;;;;;;;8.12;78.93;100064.45;110443;1260;22377;-74
2023/10/15 03:37:22;;;;;;;6.00;0.60;;;;;;;8.09;79.15;100061.63;110429;1274;22190;-74
2023/10/15 03:39:55;;;;;;;4.80;0.40;;;;;;;8.05;79.09;100063.06;110409;1274;22380;-74
2023/10/15 03:42:29;;;;;;;6.10;0.60;;;;;;;8.01;79.27;100062.76;110369;1275;22217;-74
2023/10/15 03:45:08;;;;;;;10.50;0.60;;;;;;;7.98;79.29;100063.40;110416;1267;23252;-74
2023/10/15 03:47:46;;;;;;;2.90;0.30;;;;;;;7.95;79.37;100066.46;110402;1274;22227;-74
2023/10/15 03:50:17;;;;;;;3.20;0.40;;;;;;;7.94;79.51;100070.83;110387;1274;22811;-74
2023/10/15 03:52:48;;;;;;;7.40;0.80;;;;;;;7.92;79.43;100071.53;110407;1275;23030;-74
2023/10/15 03:55:19;;;;;;;6.10;0.50;;;;;;;7.90;79.61;100069.71;110381;1269;22191;-74
2023/10/15 03:57:52;;;;;;;7.30;0.60;;;;;;;7.90;79.68;100068.70;110435;1274;22303;-74
2023/10/15 04:00:35;;;;;;;3.80;0.30;;;;;;;7.89;79.69;100068.70;110372;1274;22158;-74
2023/10/15 04:03:18;;;;;;;3.10;0.40;;;;;;;7.88;79.71;100071.23;110443;1274;22301;-74
2023/10/15 04:06:00;;;;;;;5.00;0.40;;;;;;;7.86;79.66;100070.69;110378;1274;22200;-74
2023/10/15 04:08:32;;;;;;;2.70;0.40;;;;;;;7.85;79.75;100071.54;110382;1269;22178;-74
2023/10/15 04:11:03;;;;;;;8.20;0.60;;;;;;;7.83;79.82;100067.97;110343;1274;22355;-74
2023/10/15 04:13:35;;;;;;;7.00;0.50;;;;;;;7.81;79.84;100066.08;110398;1274;22645;-74
2023/10/15 04:16:06;;;;;;;8.90;0.90;;;;;;;7.78;79.94;100065.40;110392;1274;22554;-74
2023/10/15 04:18:37;;;;;;;13.70;0.80;;;;;;;7.77;79.95;100066.83;110404;1275;23056;-74
2023/10/15 04:21:08;;;;;;;10.60;1.00;;;;;;;7.75;79.90;100058.46;110340;1274;22260;-74
2023/10/15 04:23:39;;;;;;;9.10;0.70;;;;;;;7.74;79.95;100054.02;110386;1267;22142;-74
2023/10/15 04:26:12;;;;;;;8.40;0.60;;;;;;;7.72;80.05;100053.31;110422;1267;22333;-74
2023/10/15 04:28:43;;;;;;;9.20;0.70;;;;;;;7.71;79.93;100054.14;110406;1275;22264;-74
2023/10/15 04:31:21;;;;;;;6.50;0.50;;;;;;;7.69;79.90;100048.89;110329;1274;22351;-74
2023/10/15 04:33:52;;;;;;;8.30;0.70;;;;;;;7.67;79.96;100050.55;110401;1275;22340;-74
2023/10/15 04:36:23;;;;;;;7.40;0.60;;;;;;;7.64;80.05;100049.83;110383;1274;23101;-74
2023/10/15 04:39:08;;;;;;;10.10;0.50;;;;;;;7.64;80.06;100051.20;110431;1274;22300;-74
2023/10/15 04:41:39;;;;;;;12.40;0.90;;;;;;;7.63;80.05;100051.23;110397;1274;22194;-74
2023/10/15 04:44:20;;;;;;;9.00;0.60;;;;;;;7.60;80.06;100051.18;110437;1272;23174;-74
2023/10/15 04:46:53;;;;;;;9.20;0.70;;;;;;;7.58;80.12;100052.48;110391;1274;22223;-74
2023/10/15 04:49:24;;;;;;;9.30;1.20;;;;;;;7.56;80.10;100053.14;110617;1274;22295;-74
2023/10/15 04:51:55;;;;;;;7.20;0.60;;;;;;;7.53;80.12;100053.55;110536;1274;22285;-74
2023/10/15 04:54:25;;;;;;;4.30;0.60;;;;;;;7.53;80.23;100051.22;110418;1274;22139;-74
2023/10/15 04:56:56;;;;;;;11.00;0.70;;;;;;;7.51;80.27;100052.02;110400;1274;22173;-74
2023/10/15 04:59:27;;;;;;;7.90;0.70;;;;;;;7.49;80.24;100053.73;110372;1274;22274;-74
2023/10/15 05:01:57;;;;;;;12.20;0.80;;;;;;;7.47;80.28;100052.55;110423;1274;22836;-74
2023/10/15 05:04:28;;;;;;;6.90;0.60;;;;;;;7.46;80.34;100057.54;110443;1274;22250;-75
2023/10/15 05:06:59;;;;;;;11.00;0.80;;;;;;;7.45;80.31;100057.41;110440;1270;22657;-75
2023/10/15 05:09:31;;;;;;;10.30;0.80;;;;;;;7.46;80.32;100060.96;110387;1269;22802;-74
2023/10/15 05:12:06;;;;;;;10.50;0.70;;;;;;;7.45;80.33;100062.50;110418;1274;22439;-75
2023/10/15 05:14:37;;;;;;;6.80;0.80;;;;;;;7.44;80.35;100067.48;110431;1274;22935;-74
2023/10/15 05:17:08;;;;;;;7.80;0.70;;;;;;;7.43;80.37;100068.05;110402;1270;22336;-74
2023/10/15 05:19:40;;;;;;;10.00;0.70;;;;;;;7.41;80.34;100068.70;110401;1274;22864;-75
2023/10/15 05:22:10;;;;;;;11.10;0.70;;;;;;;7.40;80.51;100068.59;110410;1274;23608;-74
2023/10/15 05:24:43;;;;;;;12.60;0.70;;;;;;;7.40;80.60;100072.56;110440;1274;22287;-74
2023/10/15 05:27:13;;;;;;;8.10;0.90;;;;;;;7.38;80.54;100075.80;110459;1274;22202;-74
2023/10/15 05:29:44;;;;;;;7.80;0.60;;;;;;;7.36;80.57;100078.88;110419;1274;22878;-74
2023/10/15 05:32:15;;;;;;;9.40;0.80;;;;;;;7.35;80.67;100078.14;110383;1274;22492;-74
2023/10/15 05:34:45;;;;;;;12.80;0.60;;;;;;;7.35;80.74;100083.94;110442;1274;22195;-74
2023/10/15 05:37:16;;;;;;;15.10;0.70;;;;;;;7.33;80.80;100085.67;110422;1274;22258;-74
2023/10/15 05:39:47;;;;;;;10.20;0.70;;;;;;;7.34;80.78;100088.98;110398;1273;23446;-74
2023/10/15 05:42:18;;;;;;;10.80;0.90;;;;;;;7.35;80.83;100090.83;110386;1264;23077;-75
2023/10/15 05:44:49;;;;;;;11.80;0.90;;;;;;;7.35;80.82;100089.03;110452;1269;22221;-75
2023/10/15 05:47:20;;;;;;;5.80;0.70;;;;;;;7.34;80.73;100093.65;110425;1274;22258;-75
2023/10/15 05:49:51;;;;;;;5.10;0.70;;;;;;;7.35;80.88;100094.19;110423;1274;22521;-75
2023/10/15 05:52:22;;;;;;;2.80;0.50;;;;;;;7.35;80.93;100093.84;110386;1268;22179;-75
2023/10/15 05:54:54;;;;;;;10.90;1.20;;;;;;;7.36;80.99;100091.93;110424;1274;22218;-75
2023/10/15 05:57:25;;;;;;;8.20;0.70;;;;;;;7.34;81.03;100095.08;110432;1274;22860;-75
2023/10/15 05:59:55;;;;;;;7.30;0.60;;;;;;;7.33;81.09;100097.88;110418;1274;22274;-75
2023/10/15 06:02:26;;;;;;;8.40;0.60;;;;;;;7.33;81.17;100101.55;110445;1274;22450;-75
2023/10/15 06:04:57;;;;;;;6.80;1.10;;;;;;;7.34;81.19;100097.08;110455;1274;22224;-75
2023/10/15 06:07:27;;;;;;;7.90;0.80;;;;;;;7.34;81.30;100101.95;110415;1274;22114;-74
2023/10/15 06:09:58;;;;;;;10.30;0.70;;;;;;;7.36;81.28;100104.62;110431;1272;22887;-75
2023/10/15 06:12:29;;;;;;;6.10;0.70;;;;;;;7.38;81.33;100103.11;110430;1274;22222;-75
2023/10/15 06:15:00;;;;;;;9.70;0.70;;;;;;;7.40;81.44;100106.51;110434;1274;22186;-75
2023/10/15 06:17:33;;;;;;;10.70;0.90;;;;;;;7.42;81.40;100107.67;110462;1274;22214;-75
2023/10/15 06:20:12;;;;;;;8.80;0.60;;;;;;;7.45;81.44;100112.25;110427;1262;22335;-76
2023/10/15 06:22:43;;;;;;;5.90;0.50;;;;;;;7.47;81.31;100113.17;110471;1274;23275;-75
2023/10/15 06:25:16;;;;;;;8.40;0.60;;;;;;;7.51;81.38;100119.23;110444;1264;22185;-75
2023/10/15 06:27:47;;;;;;;8.90;0.70;;;;;;;7.54;81.34;100119.80;110464;1268;22176;-75
2023/10/15 06:30:19;;;;;;;7.60;0.90;;;;;;;7.58;81.37;100122.09;110446;1272;22235;-75
2023/10/15 06:32:52;;;;;;;9.30;0.80;;;;;;;7.63;81.37;100123.09;110446;1266;22985;-76
2023/10/15 06:35:25;;;;;;;7.10;0.60;;;;;;;7.66;81.39;100123.17;110442;1274;22377;-76
2023/10/15 06:37:57;;;;;;;7.20;0.90;;;;;;;7.70;81.08;100128.88;110397;1273;23288;-76
2023/10/15 06:40:28;;;;;;;7.70;0.80;;;;;;;7.74;81.03;100131.17;110333;1267;22176;-75
2023/10/15 06:43:01;;;;;;;13.90;1.00;;;;;;;7.78;80.82;100133.27;110457;1269;22673;-76
2023/10/15 06:45:32;;;;;;;10.50;0.70;;;;;;;7.83;80.66;100131.33;110428;1269;22715;-76
2023/10/15 06:48:04;;;;;;;12.10;0.90;;;;;;;7.88;80.52;100136.08;110424;1266;22334;-76
2023/10/15 06:50:35;;;;;;;10.20;0.80;;;;;;;7.93;80.36;100139.61;110429;1274;23152;-75
2023/10/15 06:53:06;;;;;;;9.40;1.20;;;;;;;7.98;80.53;100140.44;110430;1268;23257;-74
2023/10/15 06:55:37;;;;;;;12.00;0.60;;;;;;;8.03;80.51;100142.35;110437;1267;22853;-75
2023/10/15 06:58:10;;;;;;;13.70;0.80;;;;;;;8.07;79.87;100147.11;110443;1267;22347;-76
2023/10/15 07:00:40;;;;;;;13.20;0.90;;;;;;;8.11;79.88;100145.91;110426;1274;22180;-76
2023/10/15 07:03:11;;;;;;;14.20;1.20;;;;;;;8.15;79.65;100145.06;110435;1274;22937;-76
2023/10/15 07:05:42;;;;;;;8.00;1.10;;;;;;;8.21;79.52;100146.27;110403;1272;22285;-75
2023/10/15 07:08:13;;;;;;;11.20;0.80;;;;;;;8.25;79.24;100149.90;110451;1274;22464;-75
2023/10/15 07:10:45;;;;;;;11.40;0.80;;;;;;;8.30;79.12;100149.96;110418;1272;22215;-75
2023/10/15 07:13:17;;;;;;;8.00;0.60;;;;;;;8.34;78.73;100151.19;110409;1273;22444;-76
2023/10/15 07:15:47;;;;;;;15.90;1.50;;;;;;;8.37;77.93;100146.08;110448;1270;22324;-76
2023/10/15 07:18:18;;;;;;;11.50;0.80;;;;;;;8.42;78.13;100150.33;110459;1269;22149;-76
2023/10/15 07:20:49;;;;;;;7.10;0.80;;;;;;;8.46;78.15;100142.91;110418;1269;22132;-77
2023/10/15 07:23:21;;;;;;;21.50;1.70;;;;;;;8.50;78.10;100138.52;110432;1274;22392;-75
2023/10/15 07:25:51;;;;;;;15.10;0.90;;;;;;;8.55;77.66;100141.69;110395;1274;22926;-76
2023/10/15 07:28:22;;;;;;;11.00;1.30;;;;;;;8.60;77.00;100144.59;110440;1269;22464;-75
2023/10/15 07:30:53;;;;;;;18.60;0.90;;;;;;;8.63;76.68;100140.71;110428;1274;22239;-75
2023/10/15 07:33:25;;;;;;;7.00;0.60;;;;;;;8.66;76.89;100142.63;110446;1273;22204;-75
2023/10/15 07:35:59;;;;;;;10.20;0.70;;;;;;;8.70;76.30;100141.31;110467;1266;23062;-76
2023/10/15 07:38:29;;;;;;;7.70;0.60;;;;;;;8.75;75.87;100139.18;110418;1268;22261;-75
2023/10/15 07:41:00;;;;;;;5.60;0.70;;;;;;;8.78;75.58;100138.41;110426;1274;23211;-76
2023/10/15 07:43:31;;;;;;;7.60;0.60;;;;;;;8.81;75.78;100142.45;110405;1270;22383;-75
2023/10/15 07:46:03;;;;;;;10.60;0.60;;;;;;;8.85;75.39;100143.70;110419;1271;23148;-74
2023/10/15 07:48:35;;;;;;;12.00;0.90;;;;;;;8.88;75.28;100148.33;110440;1272;22192;-76
2023/10/15 07:51:06;;;;;;;11.00;1.50;;;;;;;8.90;74.72;100146.00;110403;1270;23123;-76
2023/10/15 07:53:37;;;;;;;9.60;1.00;;;;;;;8.92;74.75;100148.06;110452;1274;22151;-75
2023/10/15 07:56:12;;;;;;;16.50;1.20;;;;;;;8.95;75.13;100149.98;110433;1273;22333;-76
2023/10/15 07:58:42;;;;;;;12.90;1.00;;;;;;;9.02;74.66;100156.35;110462;1274;22570;-76
2023/10/15 08:01:13;;;;;;;11.30;0.70;;;;;;;9.05;74.23;100151.52;110419;1268;22757;-76
2023/10/15 08:03:44;;;;;;;7.80;0.70;;;;;;;9.09;74.35;100160.26;110392;1274;22163;-76
2023/10/15 08:06:15;;;;;;;14.10;1.20;;;;;;;9.12;73.94;100154.27;110416;1268;22165;-76
2023/10/15 08:08:46;;;;;;;20.90;1.00;;;;;;;9.15;73.99;100154.72;110439;1274;22396;-76
2023/10/15 08:11:17;;;;;;;10.00;0.60;;;;;;;9.19;73.32;100156.89;110451;1274;23017;-75
2023/10/15 08:13:48;;;;;;;7.70;0.70;;;;;;;9.22;72.24;100152.61;110429;1271;22330;-76
2023/10/15 08:16:20;;;;;;;9.10;0.70;;;;;;;9.25;72.73;100147.67;110435;1274;22155;-76
2023/10/15 08:18:50;;;;;;;6.90;0.50;;;;;;;9.31;73.56;100154.38;110461;1274;22208;-75
2023/10/15 08:21:22;;;;;;;8.90;0.50;;;;;;;9.36;72.35;100158.14;110330;1266;22311;-76
2023/10/15 08:23:53;;;;;;;7.30;0.50;;;;;;;9.38;71.80;100160.63;110481;1274;22184;-76
2023/10/15 08:26:24;;;;;;;10.40;0.80;;;;;;;9.41;71.27;100164.55;110457;1274;23175;-76
2023/10/15 08:28:54;;;;;;;4.10;0.50;;;;;;;9.43;71.43;100162.63;110467;1274;22209;-75
2023/10/15 08:31:25;;;;;;;9.50;0.90;;;;;;;9.46;71.43;100165.91;110374;1274;22308;-76
2023/10/15 08:33:56;;;;;;;6.00;0.60;;;;;;;9.50;71.64;100169.60;110406;1266;22287;-76
2023/10/15 08:36:27;;;;;;;5.80;0.60;;;;;;;9.56;71.50;100169.13;110448;1269;22266;-76
2023/10/15 08:38:57;;;;;;;9.60;1.00;;;;;;;9.60;70.69;100172.98;110443;1269;22339;-76
2023/10/15 08:41:30;;;;;;;9.60;0.70;;;;;;;9.62;70.64;100174.02;110431;1267;23070;-76
2023/10/15 08:44:01;;;;;;;10.40;1.30;;;;;;;9.65;70.98;100173.02;110437;1266;22265;-76
2023/10/15 08:46:35;;;;;;;11.70;0.70;;;;;;;9.71;70.61;100175.13;110463;1272;22245;-75
2023/10/15 08:49:11;;;;;;;6.50;0.60;;;;;;;9.76;70.41;100174.64;110396;1272;23119;-76
2023/10/15 08:51:42;;;;;;;8.70;0.60;;;;;;;9.77;69.55;100181.14;110448;1269;22445;-76
2023/10/15 08:54:17;;;;;;;12.10;0.70;;;;;;;9.79;69.38;100176.33;110420;1274;22657;-76
2023/10/15 08:56:48;;;;;;;10.20;1.00;;;;;;;9.85;69.32;100173.73;110416;1267;22341;-76
2023/10/15 08:59:20;;;;;;;5.60;0.60;;;;;;;9.89;68.95;100170.73;110397;1271;22202;-76
2023/10/15 09:01:52;;;;;;;11.80;0.90;;;;;;;9.92;68.66;100173.18;110406;1269;22309;-76
2023/10/15 09:04:24;;;;;;;6.40;1.20;;;;;;;9.95;68.61;100170.88;110366;1274;22290;-75
2023/10/15 09:06:55;;;;;;;11.20;0.80;;;;;;;9.99;68.63;100169.88;110373;1275;22700;-75
2023/10/15 09:09:26;;;;;;;16.10;0.80;;;;;;;10.03;68.67;100163.87;110266;1274;23057;-76
2023/10/15 09:11:57;;;;;;;9.30;0.90;;;;;;;10.08;68.74;100166.77;110413;1271;22311;-76
2023/10/15 09:14:42;;;;;;;5.90;0.50;;;;;;;10.14;68.00;100168.02;110351;1274;22381;-76
2023/10/15 09:17:15;;;;;;;11.20;0.80;;;;;;;10.17;67.40;100162.05;110406;1267;22397;-76
2023/10/15 09:19:47;;;;;;;9.10;0.60;;;;;;;10.18;67.70;100161.20;110341;1262;22471;-76
2023/10/15 09:22:18;;;;;;;5.80;1.20;;;;;;;10.23;67.61;100165.96;110405;1274;22207;-76
2023/10/15 09:24:49;;;;;;;11.30;0.80;;;;;;;10.28;67.27;100162.98;110442;1262;22635;-75
2023/10/15 09:27:20;;;;;;;6.20;0.60;;;;;;;10.33;66.91;100163.27;110415;1274;22168;-75
2023/10/15 09:30:10;;;;;;;10.90;0.90;;;;;;;10.36;66.42;100164.70;110400;1274;22394;-75
2023/10/15 09:32:40;;;;;;;19.60;1.00;;;;;;;10.36;65.76;100166.31;110444;1274;21945;-75
2023/10/15 09:35:13;;;;;;;9.10;1.20;;;;;;;10.35;65.58;100164.21;110442;1274;22821;-75
2023/10/15 09:37:45;;;;;;;12.00;0.70;;;;;;;10.35;65.85;100156.37;110468;1272;22965;-75
2023/10/15 09:40:20;;;;;;;5.30;0.60;;;;;;;10.40;65.96;100155.56;110440;1274;22381;-75
2023/10/15 09:42:55;;;;;;;7.40;0.80;;;;;;;10.42;65.78;100155.38;110447;1274;22215;-75
2023/10/15 09:45:26;;;;;;;8.40;1.10;;;;;;;10.45;65.79;100152.39;110451;1274;22188;-75
2023/10/15 09:48:00;;;;;;;7.20;0.70;;;;;;;10.50;65.97;100149.21;110470;1271;22281;-76
2023/10/15 09:50:32;;;;;;;10.30;0.80;;;;;;;10.54;65.57;100148.54;110401;1273;22156;-75
2023/10/15 09:53:09;;;;;;;8.10;0.80;;;;;;;10.59;65.21;100148.31;110409;1274;22215;-75
2023/10/15 09:55:41;;;;;;;6.00;0.60;;;;;;;10.64;65.10;100141.99;110442;1274;22203;-75
2023/10/15 09:58:12;;;;;;;6.90;0.60;;;;;;;10.71;65.32;100141.11;110408;1272;22206;-75
2023/10/15 10:00:48;;;;;;;12.40;0.80;;;;;;;10.80;64.89;100139.16;110445;1274;22802;-75
2023/10/15 10:03:37;;;;;;;8.50;0.70;;;;;;;10.88;63.82;100139.95;110437;1272;23120;-75
2023/10/15 10:06:15;;;;;;;11.90;0.70;;;;;;;10.93;63.24;100146.38;110427;1274;22321;-75
2023/10/15 10:09:04;;;;;;;13.90;1.20;;;;;;;10.94;63.22;100143.50;110455;1274;22215;-75
2023/10/15 10:11:52;;;;;;;7.40;0.90;;;;;;;10.98;62.94;100145.40;110439;1274;22150;-75
2023/10/15 10:14:40;;;;;;;12.40;0.90;;;;;;;11.00;62.69;100144.42;110459;1269;22276;-76
2023/10/15 10:17:12;;;;;;;7.40;0.80;;;;;;;11.02;62.86;100139.55;110389;1262;22281;-76
2023/10/15 10:19:43;;;;;;;9.40;0.90;;;;;;;11.05;63.13;100132.20;110365;1266;23027;-76
2023/10/15 10:22:26;;;;;;;10.80;1.00;;;;;;;11.10;62.92;100127.45;110394;1274;23282;-76
2023/10/15 10:24:58;;;;;;;6.80;0.90;;;;;;;11.19;62.71;100122.30;110403;1267;22309;-77
2023/10/15 10:27:29;;;;;;;10.70;0.70;;;;;;;11.27;62.65;100124.98;110453;1274;22124;-75
2023/10/15 10:30:23;;;;;;;11.70;1.00;;;;;;;11.35;62.27;100115.92;110417;1269;23292;-75
2023/10/15 10:32:56;;;;;;;12.50;1.90;;;;;;;11.43;61.61;100121.31;110446;1274;22362;-75
2023/10/15 10:35:27;;;;;;;15.30;2.20;;;;;;;11.47;61.25;100119.80;110409;1274;22360;-75
2023/10/15 10:38:07;;;;;;;12.60;0.90;;;;;;;11.51;60.22;100125.09;110349;1274;22280;-75
2023/10/15 10:40:52;;;;;;;13.40;2.00;;;;;;;11.53;59.69;100116.56;110383;1268;23072;-75
2023/10/15 10:43:26;;;;;;;6.60;0.80;;;;;;;11.48;59.61;100117.83;110419;1272;22189;-75
2023/10/15 10:45:58;;;;;;;9.00;0.80;;;;;;;11.41;59.15;100117.73;110378;1274;23098;-75
2023/10/15 10:48:33;;;;;;;7.50;1.00;;;;;;;11.37;59.26;100112.50;110400;1274;23428;-75
2023/10/15 10:51:21;;;;;;;9.30;1.10;;;;;;;11.37;59.20;100114.44;110310;1274;22583;-74
2023/10/15 10:54:22;;;;;;;12.30;1.50;;;;;;;11.36;59.04;100112.64;110391;1274;22385;-75
2023/10/15 10:57:02;;;;;;;12.20;1.80;;;;;;;11.37;59.19;100117.23;109841;1281;22258;-75
2023/10/15 10:59:33;;;;;;;14.20;1.40;;;;;;;11.35;58.81;100111.86;109827;1275;22228;-75
2023/10/15 11:02:04;;;;;;;10.10;0.80;;;;;;;11.35;59.21;100111.36;109787;1278;22226;-75
2023/10/15 11:04:36;;;;;;;9.90;1.00;;;;;;;11.45;59.30;100110.67;109835;1278;22901;-75
2023/10/15 11:07:07;;;;;;;14.10;1.80;;;;;;;11.51;59.42;100109.07;109873;1281;22387;-76
2023/10/15 11:09:38;;;;;;;9.90;0.90;;;;;;;11.54;59.20;100106.33;109859;1274;22715;-75
2023/10/15 11:12:10;;;;;;;12.20;1.40;;;;;;;11.61;59.47;100103.86;109870;1274;22335;-76
2023/10/15 11:14:42;;;;;;;10.90;1.40;;;;;;;11.73;59.16;100109.88;109880;1281;22987;-75
2023/10/15 11:17:12;;;;;;;11.70;1.60;;;;;;;11.78;58.88;100106.05;109890;1281;22324;-75
2023/10/15 11:19:43;;;;;;;11.40;1.40;;;;;;;11.81;59.07;100102.87;109826;1281;23102;-74
2023/10/15 11:22:14;;;;;;;7.30;1.00;;;;;;;11.83;59.17;100104.73;109812;1280;22243;-75
2023/10/15 11:24:45;;;;;;;10.80;0.90;;;;;;;11.84;59.18;100103.11;109859;1275;22251;-76
2023/10/15 11:27:19;;;;;;;9.90;1.00;;;;;;;11.83;58.87;100098.38;109865;1275;22420;-75
2023/10/15 11:29:50;;;;;;;10.80;1.10;;;;;;;11.84;58.67;100094.57;109874;1275;22445;-75
2023/10/15 11:32:21;;;;;;;13.00;0.90;;;;;;;11.86;57.88;100090.93;109846;1281;22289;-76
2023/10/15 11:34:52;;;;;;;9.30;0.80;;;;;;;11.87;57.95;100079.85;110262;1274;22429;-75
2023/10/15 11:37:25;;;;;;;11.20;1.30;;;;;;;11.88;57.91;100078.89;110400;1274;22247;-75
2023/10/15 11:39:57;;;;;;;9.10;1.40;;;;;;;11.88;58.33;100081.64;110431;1274;22365;-76
2023/10/15 11:42:29;;;;;;;7.50;0.60;;;;;;;11.90;57.78;100085.88;110433;1274;22354;-74
2023/10/15 11:45:00;;;;;;;7.50;0.90;;;;;;;11.90;57.60;100087.20;110424;1274;22952;-75
2023/10/15 11:47:35;;;;;;;4.50;0.50;;;;;;;11.88;57.01;100086.73;110404;1274;22165;-76
2023/10/15 11:50:07;;;;;;;12.30;0.80;;;;;;;11.86;57.56;100078.92;109126;1267;22546;-77